sensor_id;sensor_type;location;lat;lon;timestamp;P1;durP1;ratioP1;P2;durP2;ratioP2
21611;SDS011;47005;52.292;13.452;2023-04-06T00:01:48;8.87;;;6.20;;
21611;SDS011;47005;52.292;13.452;2023-04-06T00:04:15;8.77;;;6.70;;
21611;SDS011;47005;52.292;13.452;2023-04-06T00:06:41;8.00;;;6.53;;
21611;SDS011;47005;52.292;13.452;2023-04-06T00:09:07;9.57;;;6.93;;
21611;SDS011;47005;52.292;13.452;2023-04-06T00:11:33;9.13;;;6.40;;
21611;SDS011;47005;52.292;13.452;2023-04-06T00:13:58;11.67;;;7.43;;
21611;SDS011;47005;52.292;13.452;2023-04-06T00:16:24;9.83;;;7.47;;
21611;SDS011;47005;52.292;13.452;2023-04-06T00:18:50;11.93;;;6.87;;
21611;SDS011;47005;52.292;13.452;2023-04-06T00:21:16;10.10;;;6.27;;
21611;SDS011;47005;52.292;13.452;2023-04-06T00:23:44;9.30;;;6.93;;
21611;SDS011;47005;52.292;13.452;2023-04-06T00:26:10;10.97;;;6.93;;
21611;SDS011;47005;52.292;13.452;2023-04-06T00:28:36;10.93;;;8.17;;
21611;SDS011;47005;52.292;13.452;2023-04-06T00:31:02;13.30;;;8.27;;
21611;SDS011;47005;52.292;13.452;2023-04-06T00:33:28;9.60;;;7.43;;
21611;SDS011;47005;52.292;13.452;2023-04-06T00:35:54;10.67;;;7.93;;
21611;SDS011;47005;52.292;13.452;2023-04-06T00:38:19;15.27;;;7.33;;
21611;SDS011;47005;52.292;13.452;2023-04-06T00:40:45;9.40;;;7.33;;
21611;SDS011;47005;52.292;13.452;2023-04-06T00:43:11;11.33;;;8.17;;
21611;SDS011;47005;52.292;13.452;2023-04-06T00:45:37;11.27;;;7.57;;
21611;SDS011;47005;52.292;13.452;2023-04-06T00:48:04;10.43;;;8.23;;
21611;SDS011;47005;52.292;13.452;2023-04-06T00:50:31;7.83;;;6.23;;
21611;SDS011;47005;52.292;13.452;2023-04-06T00:52:57;11.30;;;8.00;;
21611;SDS011;47005;52.292;13.452;2023-04-06T00:55:23;14.40;;;6.90;;
21611;SDS011;47005;52.292;13.452;2023-04-06T00:57:49;7.47;;;6.50;;
21611;SDS011;47005;52.292;13.452;2023-04-06T01:00:16;14.23;;;7.33;;
21611;SDS011;47005;52.292;13.452;2023-04-06T01:02:42;11.63;;;7.37;;
21611;SDS011;47005;52.292;13.452;2023-04-06T01:05:09;10.93;;;7.30;;
21611;SDS011;47005;52.292;13.452;2023-04-06T01:07:35;13.10;;;7.53;;
21611;SDS011;47005;52.292;13.452;2023-04-06T01:10:01;11.63;;;8.40;;
21611;SDS011;47005;52.292;13.452;2023-04-06T01:12:28;15.13;;;7.67;;
21611;SDS011;47005;52.292;13.452;2023-04-06T01:14:54;9.53;;;8.00;;
21611;SDS011;47005;52.292;13.452;2023-04-06T01:17:20;11.83;;;8.37;;
21611;SDS011;47005;52.292;13.452;2023-04-06T01:19:46;12.80;;;8.40;;
21611;SDS011;47005;52.292;13.452;2023-04-06T01:22:17;11.77;;;7.73;;
21611;SDS011;47005;52.292;13.452;2023-04-06T01:24:43;11.47;;;8.40;;
21611;SDS011;47005;52.292;13.452;2023-04-06T01:27:09;12.47;;;8.50;;
21611;SDS011;47005;52.292;13.452;2023-04-06T01:29:35;10.47;;;8.27;;
21611;SDS011;47005;52.292;13.452;2023-04-06T01:32:01;9.47;;;7.90;;
21611;SDS011;47005;52.292;13.452;2023-04-06T01:34:26;11.10;;;7.63;;
21611;SDS011;47005;52.292;13.452;2023-04-06T01:36:52;10.13;;;7.77;;
21611;SDS011;47005;52.292;13.452;2023-04-06T01:39:18;12.70;;;9.23;;
21611;SDS011;47005;52.292;13.452;2023-04-06T01:41:44;11.63;;;7.80;;
21611;SDS011;47005;52.292;13.452;2023-04-06T01:44:12;10.57;;;7.53;;
21611;SDS011;47005;52.292;13.452;2023-04-06T01:46:41;12.07;;;8.17;;
21611;SDS011;47005;52.292;13.452;2023-04-06T01:49:06;9.90;;;8.30;;
21611;SDS011;47005;52.292;13.452;2023-04-06T01:51:32;11.87;;;8.77;;
21611;SDS011;47005;52.292;13.452;2023-04-06T01:53:58;17.47;;;8.73;;
21611;SDS011;47005;52.292;13.452;2023-04-06T01:56:23;10.93;;;8.47;;
21611;SDS011;47005;52.292;13.452;2023-04-06T01:58:49;14.63;;;10.00;;
21611;SDS011;47005;52.292;13.452;2023-04-06T02:01:15;12.70;;;9.10;;
21611;SDS011;47005;52.292;13.452;2023-04-06T02:03:40;15.03;;;9.60;;
21611;SDS011;47005;52.292;13.452;2023-04-06T02:06:06;11.33;;;9.17;;
21611;SDS011;47005;52.292;13.452;2023-04-06T02:08:32;12.63;;;8.43;;
21611;SDS011;47005;52.292;13.452;2023-04-06T02:10:57;11.17;;;8.43;;
21611;SDS011;47005;52.292;13.452;2023-04-06T02:13:23;10.47;;;8.63;;
21611;SDS011;47005;52.292;13.452;2023-04-06T02:15:49;10.20;;;7.87;;
21611;SDS011;47005;52.292;13.452;2023-04-06T02:18:15;12.50;;;8.90;;
21611;SDS011;47005;52.292;13.452;2023-04-06T02:20:42;10.67;;;8.57;;
21611;SDS011;47005;52.292;13.452;2023-04-06T02:23:08;14.00;;;7.70;;
21611;SDS011;47005;52.292;13.452;2023-04-06T02:25:33;12.00;;;7.40;;
21611;SDS011;47005;52.292;13.452;2023-04-06T02:27:59;9.73;;;7.70;;
21611;SDS011;47005;52.292;13.452;2023-04-06T02:30:25;10.37;;;8.07;;
21611;SDS011;47005;52.292;13.452;2023-04-06T02:32:51;9.13;;;7.27;;
21611;SDS011;47005;52.292;13.452;2023-04-06T02:35:17;12.57;;;8.80;;
21611;SDS011;47005;52.292;13.452;2023-04-06T02:37:43;12.13;;;7.67;;
21611;SDS011;47005;52.292;13.452;2023-04-06T02:40:08;11.20;;;8.13;;
21611;SDS011;47005;52.292;13.452;2023-04-06T02:42:35;12.80;;;8.63;;
21611;SDS011;47005;52.292;13.452;2023-04-06T02:45:00;14.53;;;8.93;;
21611;SDS011;47005;52.292;13.452;2023-04-06T02:47:26;14.33;;;9.00;;
21611;SDS011;47005;52.292;13.452;2023-04-06T02:49:52;11.67;;;9.30;;
21611;SDS011;47005;52.292;13.452;2023-04-06T02:52:17;14.40;;;9.30;;
21611;SDS011;47005;52.292;13.452;2023-04-06T02:54:43;12.43;;;9.07;;
21611;SDS011;47005;52.292;13.452;2023-04-06T02:57:09;15.17;;;8.90;;
21611;SDS011;47005;52.292;13.452;2023-04-06T02:59:35;20.70;;;9.87;;
21611;SDS011;47005;52.292;13.452;2023-04-06T03:02:00;10.30;;;8.87;;
21611;SDS011;47005;52.292;13.452;2023-04-06T03:04:26;13.50;;;8.97;;
21611;SDS011;47005;52.292;13.452;2023-04-06T03:06:53;14.70;;;9.60;;
21611;SDS011;47005;52.292;13.452;2023-04-06T03:09:19;9.83;;;8.47;;
21611;SDS011;47005;52.292;13.452;2023-04-06T03:11:45;17.20;;;9.07;;
21611;SDS011;47005;52.292;13.452;2023-04-06T03:14:10;15.80;;;9.90;;
21611;SDS011;47005;52.292;13.452;2023-04-06T03:16:36;10.60;;;8.17;;
21611;SDS011;47005;52.292;13.452;2023-04-06T03:19:02;10.90;;;9.30;;
21611;SDS011;47005;52.292;13.452;2023-04-06T03:21:27;16.77;;;8.90;;
21611;SDS011;47005;52.292;13.452;2023-04-06T03:23:53;10.53;;;9.23;;
21611;SDS011;47005;52.292;13.452;2023-04-06T03:26:19;11.77;;;9.07;;
21611;SDS011;47005;52.292;13.452;2023-04-06T03:28:45;12.17;;;8.90;;
21611;SDS011;47005;52.292;13.452;2023-04-06T03:31:10;12.03;;;8.30;;
21611;SDS011;47005;52.292;13.452;2023-04-06T03:33:36;12.90;;;8.73;;
21611;SDS011;47005;52.292;13.452;2023-04-06T03:36:02;10.43;;;8.80;;
21611;SDS011;47005;52.292;13.452;2023-04-06T03:38:28;12.77;;;9.17;;
21611;SDS011;47005;52.292;13.452;2023-04-06T03:40:54;14.50;;;9.10;;
21611;SDS011;47005;52.292;13.452;2023-04-06T03:43:19;12.33;;;9.90;;
21611;SDS011;47005;52.292;13.452;2023-04-06T03:45:45;14.07;;;10.53;;
21611;SDS011;47005;52.292;13.452;2023-04-06T03:48:10;15.83;;;9.87;;
21611;SDS011;47005;52.292;13.452;2023-04-06T03:50:36;12.77;;;9.30;;
21611;SDS011;47005;52.292;13.452;2023-04-06T03:53:02;15.40;;;11.13;;
21611;SDS011;47005;52.292;13.452;2023-04-06T03:55:28;13.83;;;10.17;;
21611;SDS011;47005;52.292;13.452;2023-04-06T03:57:54;12.67;;;10.90;;
21611;SDS011;47005;52.292;13.452;2023-04-06T04:00:20;14.40;;;9.67;;
21611;SDS011;47005;52.292;13.452;2023-04-06T04:02:45;13.03;;;10.73;;
21611;SDS011;47005;52.292;13.452;2023-04-06T04:05:11;12.70;;;9.73;;
21611;SDS011;47005;52.292;13.452;2023-04-06T04:07:37;13.93;;;10.47;;
21611;SDS011;47005;52.292;13.452;2023-04-06T04:10:02;12.07;;;9.93;;
21611;SDS011;47005;52.292;13.452;2023-04-06T04:12:29;14.07;;;11.30;;
21611;SDS011;47005;52.292;13.452;2023-04-06T04:14:54;13.30;;;11.83;;
21611;SDS011;47005;52.292;13.452;2023-04-06T04:17:21;22.37;;;13.13;;
21611;SDS011;47005;52.292;13.452;2023-04-06T04:19:46;21.17;;;15.90;;
21611;SDS011;47005;52.292;13.452;2023-04-06T04:22:12;21.20;;;15.67;;
21611;SDS011;47005;52.292;13.452;2023-04-06T04:24:37;27.23;;;19.00;;
21611;SDS011;47005;52.292;13.452;2023-04-06T04:27:03;18.13;;;14.57;;
21611;SDS011;47005;52.292;13.452;2023-04-06T04:29:30;23.47;;;17.37;;
21611;SDS011;47005;52.292;13.452;2023-04-06T04:31:55;22.33;;;15.63;;
21611;SDS011;47005;52.292;13.452;2023-04-06T04:34:21;25.37;;;16.00;;
21611;SDS011;47005;52.292;13.452;2023-04-06T04:36:50;18.20;;;16.27;;
21611;SDS011;47005;52.292;13.452;2023-04-06T04:39:16;21.07;;;16.27;;
21611;SDS011;47005;52.292;13.452;2023-04-06T04:41:41;17.20;;;13.63;;
21611;SDS011;47005;52.292;13.452;2023-04-06T04:44:07;18.13;;;13.37;;
21611;SDS011;47005;52.292;13.452;2023-04-06T04:46:33;22.17;;;16.17;;
21611;SDS011;47005;52.292;13.452;2023-04-06T04:48:59;18.77;;;13.80;;
21611;SDS011;47005;52.292;13.452;2023-04-06T04:51:25;18.17;;;14.43;;
21611;SDS011;47005;52.292;13.452;2023-04-06T04:53:50;18.63;;;14.67;;
21611;SDS011;47005;52.292;13.452;2023-04-06T04:56:16;18.37;;;14.77;;
21611;SDS011;47005;52.292;13.452;2023-04-06T04:58:42;17.63;;;14.10;;
21611;SDS011;47005;52.292;13.452;2023-04-06T05:01:08;23.37;;;14.43;;
21611;SDS011;47005;52.292;13.452;2023-04-06T05:03:33;17.30;;;13.17;;
21611;SDS011;47005;52.292;13.452;2023-04-06T05:06:00;16.83;;;13.93;;
21611;SDS011;47005;52.292;13.452;2023-04-06T05:08:26;23.37;;;13.07;;
21611;SDS011;47005;52.292;13.452;2023-04-06T05:10:52;15.60;;;13.23;;
21611;SDS011;47005;52.292;13.452;2023-04-06T05:13:17;17.97;;;12.60;;
21611;SDS011;47005;52.292;13.452;2023-04-06T05:15:43;19.20;;;13.53;;
21611;SDS011;47005;52.292;13.452;2023-04-06T05:18:09;13.40;;;10.67;;
21611;SDS011;47005;52.292;13.452;2023-04-06T05:20:37;15.00;;;10.93;;
21611;SDS011;47005;52.292;13.452;2023-04-06T05:23:03;14.10;;;9.90;;
21611;SDS011;47005;52.292;13.452;2023-04-06T05:25:29;19.10;;;8.20;;
21611;SDS011;47005;52.292;13.452;2023-04-06T05:27:55;13.57;;;9.93;;
21611;SDS011;47005;52.292;13.452;2023-04-06T05:30:21;13.33;;;8.23;;
21611;SDS011;47005;52.292;13.452;2023-04-06T05:32:47;11.87;;;7.63;;
21611;SDS011;47005;52.292;13.452;2023-04-06T05:35:13;9.90;;;7.80;;
21611;SDS011;47005;52.292;13.452;2023-04-06T05:37:38;9.43;;;6.77;;
21611;SDS011;47005;52.292;13.452;2023-04-06T05:40:04;9.63;;;7.17;;
21611;SDS011;47005;52.292;13.452;2023-04-06T05:42:40;11.80;;;6.07;;
21611;SDS011;47005;52.292;13.452;2023-04-06T05:45:07;8.80;;;7.13;;
21611;SDS011;47005;52.292;13.452;2023-04-06T05:47:34;10.40;;;7.33;;
21611;SDS011;47005;52.292;13.452;2023-04-06T05:50:00;8.80;;;6.00;;
21611;SDS011;47005;52.292;13.452;2023-04-06T05:52:25;8.40;;;5.97;;
21611;SDS011;47005;52.292;13.452;2023-04-06T05:54:51;9.03;;;5.87;;
21611;SDS011;47005;52.292;13.452;2023-04-06T05:57:17;7.37;;;5.97;;
21611;SDS011;47005;52.292;13.452;2023-04-06T05:59:43;8.00;;;5.53;;
21611;SDS011;47005;52.292;13.452;2023-04-06T06:02:09;7.93;;;5.50;;
21611;SDS011;47005;52.292;13.452;2023-04-06T06:04:35;7.67;;;5.20;;
21611;SDS011;47005;52.292;13.452;2023-04-06T06:07:01;8.77;;;5.53;;
21611;SDS011;47005;52.292;13.452;2023-04-06T06:09:27;7.07;;;5.07;;
21611;SDS011;47005;52.292;13.452;2023-04-06T06:11:52;6.63;;;4.70;;
21611;SDS011;47005;52.292;13.452;2023-04-06T06:14:18;7.83;;;5.80;;
21611;SDS011;47005;52.292;13.452;2023-04-06T06:16:44;9.10;;;6.00;;
21611;SDS011;47005;52.292;13.452;2023-04-06T06:19:10;7.00;;;5.07;;
21611;SDS011;47005;52.292;13.452;2023-04-06T06:21:36;9.13;;;6.00;;
21611;SDS011;47005;52.292;13.452;2023-04-06T06:24:02;7.77;;;5.63;;
21611;SDS011;47005;52.292;13.452;2023-04-06T06:26:27;7.70;;;4.90;;
21611;SDS011;47005;52.292;13.452;2023-04-06T06:28:53;8.73;;;4.73;;
21611;SDS011;47005;52.292;13.452;2023-04-06T06:31:20;7.53;;;5.13;;
21611;SDS011;47005;52.292;13.452;2023-04-06T06:33:47;6.93;;;4.30;;
21611;SDS011;47005;52.292;13.452;2023-04-06T06:36:16;7.73;;;5.33;;
21611;SDS011;47005;52.292;13.452;2023-04-06T06:38:42;8.03;;;4.93;;
21611;SDS011;47005;52.292;13.452;2023-04-06T06:41:08;8.57;;;4.43;;
21611;SDS011;47005;52.292;13.452;2023-04-06T06:43:34;6.93;;;4.43;;
21611;SDS011;47005;52.292;13.452;2023-04-06T06:46:00;7.67;;;4.83;;
21611;SDS011;47005;52.292;13.452;2023-04-06T06:48:25;8.47;;;5.63;;
21611;SDS011;47005;52.292;13.452;2023-04-06T06:50:51;9.00;;;5.37;;
21611;SDS011;47005;52.292;13.452;2023-04-06T06:53:17;7.57;;;4.90;;
21611;SDS011;47005;52.292;13.452;2023-04-06T06:55:42;6.43;;;5.13;;
21611;SDS011;47005;52.292;13.452;2023-04-06T06:58:11;7.83;;;4.90;;
21611;SDS011;47005;52.292;13.452;2023-04-06T07:00:37;12.80;;;5.57;;
21611;SDS011;47005;52.292;13.452;2023-04-06T07:03:03;8.30;;;4.97;;
21611;SDS011;47005;52.292;13.452;2023-04-06T07:05:28;12.27;;;4.63;;
21611;SDS011;47005;52.292;13.452;2023-04-06T07:07:54;9.10;;;4.37;;
21611;SDS011;47005;52.292;13.452;2023-04-06T07:10:21;7.93;;;4.90;;
21611;SDS011;47005;52.292;13.452;2023-04-06T07:12:47;7.23;;;4.60;;
21611;SDS011;47005;52.292;13.452;2023-04-06T07:15:13;9.47;;;4.03;;
21611;SDS011;47005;52.292;13.452;2023-04-06T07:17:38;7.53;;;4.73;;
21611;SDS011;47005;52.292;13.452;2023-04-06T07:20:06;8.70;;;5.77;;
21611;SDS011;47005;52.292;13.452;2023-04-06T07:22:32;10.60;;;4.43;;
21611;SDS011;47005;52.292;13.452;2023-04-06T07:24:57;7.23;;;4.20;;
21611;SDS011;47005;52.292;13.452;2023-04-06T07:27:23;8.37;;;5.10;;
21611;SDS011;47005;52.292;13.452;2023-04-06T07:29:49;7.00;;;4.37;;
21611;SDS011;47005;52.292;13.452;2023-04-06T07:32:14;6.07;;;3.57;;
21611;SDS011;47005;52.292;13.452;2023-04-06T07:34:40;6.77;;;3.77;;
21611;SDS011;47005;52.292;13.452;2023-04-06T07:37:06;7.57;;;3.70;;
21611;SDS011;47005;52.292;13.452;2023-04-06T07:39:31;9.57;;;4.20;;
21611;SDS011;47005;52.292;13.452;2023-04-06T07:41:57;5.73;;;3.93;;
21611;SDS011;47005;52.292;13.452;2023-04-06T07:44:23;10.60;;;4.10;;
21611;SDS011;47005;52.292;13.452;2023-04-06T07:46:48;11.90;;;4.13;;
21611;SDS011;47005;52.292;13.452;2023-04-06T07:49:14;6.83;;;3.73;;
21611;SDS011;47005;52.292;13.452;2023-04-06T07:51:40;6.30;;;3.37;;
21611;SDS011;47005;52.292;13.452;2023-04-06T07:54:06;8.60;;;4.07;;
21611;SDS011;47005;52.292;13.452;2023-04-06T07:56:32;5.20;;;3.40;;
21611;SDS011;47005;52.292;13.452;2023-04-06T07:58:57;5.70;;;3.90;;
21611;SDS011;47005;52.292;13.452;2023-04-06T08:01:23;5.80;;;3.60;;
21611;SDS011;47005;52.292;13.452;2023-04-06T08:03:50;4.80;;;3.50;;
21611;SDS011;47005;52.292;13.452;2023-04-06T08:06:16;6.33;;;3.60;;
21611;SDS011;47005;52.292;13.452;2023-04-06T08:08:42;7.63;;;3.30;;
21611;SDS011;47005;52.292;13.452;2023-04-06T08:11:08;6.73;;;3.27;;
21611;SDS011;47005;52.292;13.452;2023-04-06T08:13:34;6.73;;;3.27;;
21611;SDS011;47005;52.292;13.452;2023-04-06T08:16:00;7.80;;;2.43;;
21611;SDS011;47005;52.292;13.452;2023-04-06T08:18:26;6.67;;;3.20;;
21611;SDS011;47005;52.292;13.452;2023-04-06T08:20:52;4.80;;;2.83;;
21611;SDS011;47005;52.292;13.452;2023-04-06T08:23:19;3.77;;;2.17;;
21611;SDS011;47005;52.292;13.452;2023-04-06T08:25:45;4.67;;;2.10;;
21611;SDS011;47005;52.292;13.452;2023-04-06T08:28:10;3.23;;;1.93;;
21611;SDS011;47005;52.292;13.452;2023-04-06T08:30:36;4.50;;;2.20;;
21611;SDS011;47005;52.292;13.452;2023-04-06T08:33:04;6.53;;;2.20;;
21611;SDS011;47005;52.292;13.452;2023-04-06T08:35:30;6.20;;;2.03;;
21611;SDS011;47005;52.292;13.452;2023-04-06T08:37:56;3.53;;;2.10;;
21611;SDS011;47005;52.292;13.452;2023-04-06T08:40:22;4.67;;;2.90;;
21611;SDS011;47005;52.292;13.452;2023-04-06T08:42:49;3.27;;;1.93;;
21611;SDS011;47005;52.292;13.452;2023-04-06T08:45:17;3.57;;;2.13;;
21611;SDS011;47005;52.292;13.452;2023-04-06T08:47:46;3.73;;;1.70;;
21611;SDS011;47005;52.292;13.452;2023-04-06T08:50:13;4.47;;;1.93;;
21611;SDS011;47005;52.292;13.452;2023-04-06T08:52:41;3.60;;;2.27;;
21611;SDS011;47005;52.292;13.452;2023-04-06T08:55:11;3.77;;;2.07;;
21611;SDS011;47005;52.292;13.452;2023-04-06T08:57:37;5.90;;;2.37;;
21611;SDS011;47005;52.292;13.452;2023-04-06T09:00:04;3.30;;;2.00;;
21611;SDS011;47005;52.292;13.452;2023-04-06T09:02:31;4.33;;;1.80;;
21611;SDS011;47005;52.292;13.452;2023-04-06T09:04:57;5.33;;;2.10;;
21611;SDS011;47005;52.292;13.452;2023-04-06T09:07:24;4.37;;;1.73;;
21611;SDS011;47005;52.292;13.452;2023-04-06T09:09:49;4.37;;;2.10;;
21611;SDS011;47005;52.292;13.452;2023-04-06T09:12:30;7.30;;;2.07;;
21611;SDS011;47005;52.292;13.452;2023-04-06T09:14:56;6.97;;;1.97;;
21611;SDS011;47005;52.292;13.452;2023-04-06T09:17:23;4.23;;;1.93;;
21611;SDS011;47005;52.292;13.452;2023-04-06T09:19:51;8.30;;;2.57;;
21611;SDS011;47005;52.292;13.452;2023-04-06T09:22:17;3.60;;;1.60;;
21611;SDS011;47005;52.292;13.452;2023-04-06T09:24:44;3.47;;;2.23;;
21611;SDS011;47005;52.292;13.452;2023-04-06T09:27:12;4.47;;;2.07;;
21611;SDS011;47005;52.292;13.452;2023-04-06T09:29:38;5.47;;;1.60;;
21611;SDS011;47005;52.292;13.452;2023-04-06T09:34:30;2.20;;;1.53;;
21611;SDS011;47005;52.292;13.452;2023-04-06T09:36:58;6.97;;;1.80;;
21611;SDS011;47005;52.292;13.452;2023-04-06T09:39:24;3.67;;;1.43;;
21611;SDS011;47005;52.292;13.452;2023-04-06T09:41:51;4.33;;;1.83;;
21611;SDS011;47005;52.292;13.452;2023-04-06T09:44:17;3.20;;;1.77;;
21611;SDS011;47005;52.292;13.452;2023-04-06T09:46:44;3.70;;;1.80;;
21611;SDS011;47005;52.292;13.452;2023-04-06T09:49:12;2.60;;;1.80;;
21611;SDS011;47005;52.292;13.452;2023-04-06T09:51:45;9.93;;;2.60;;
21611;SDS011;47005;52.292;13.452;2023-04-06T09:54:21;6.07;;;1.87;;
21611;SDS011;47005;52.292;13.452;2023-04-06T09:56:50;2.27;;;1.33;;
21611;SDS011;47005;52.292;13.452;2023-04-06T09:59:24;2.33;;;1.30;;
21611;SDS011;47005;52.292;13.452;2023-04-06T10:01:58;3.23;;;1.70;;
21611;SDS011;47005;52.292;13.452;2023-04-06T10:06:57;3.60;;;1.90;;
21611;SDS011;47005;52.292;13.452;2023-04-06T10:09:25;4.00;;;1.60;;
21611;SDS011;47005;52.292;13.452;2023-04-06T10:12:00;4.63;;;1.40;;
21611;SDS011;47005;52.292;13.452;2023-04-06T10:14:35;3.80;;;1.50;;
21611;SDS011;47005;52.292;13.452;2023-04-06T10:17:02;5.20;;;1.73;;
21611;SDS011;47005;52.292;13.452;2023-04-06T10:19:32;2.03;;;1.33;;
21611;SDS011;47005;52.292;13.452;2023-04-06T10:22:22;3.60;;;1.80;;
21611;SDS011;47005;52.292;13.452;2023-04-06T10:24:54;2.67;;;1.60;;
21611;SDS011;47005;52.292;13.452;2023-04-06T10:27:29;3.43;;;2.07;;
21611;SDS011;47005;52.292;13.452;2023-04-06T10:30:00;3.00;;;1.57;;
21611;SDS011;47005;52.292;13.452;2023-04-06T10:32:32;2.00;;;1.20;;
21611;SDS011;47005;52.292;13.452;2023-04-06T10:35:08;5.03;;;2.40;;
21611;SDS011;47005;52.292;13.452;2023-04-06T10:37:51;4.80;;;1.70;;
21611;SDS011;47005;52.292;13.452;2023-04-06T10:40:27;3.60;;;1.60;;
21611;SDS011;47005;52.292;13.452;2023-04-06T10:42:54;2.93;;;1.40;;
21611;SDS011;47005;52.292;13.452;2023-04-06T10:45:26;4.80;;;1.73;;
21611;SDS011;47005;52.292;13.452;2023-04-06T10:47:56;3.47;;;1.77;;
21611;SDS011;47005;52.292;13.452;2023-04-06T10:50:22;3.73;;;1.93;;
21611;SDS011;47005;52.292;13.452;2023-04-06T10:52:58;2.23;;;1.30;;
21611;SDS011;47005;52.292;13.452;2023-04-06T10:55:27;3.73;;;2.00;;
21611;SDS011;47005;52.292;13.452;2023-04-06T10:57:54;4.63;;;1.97;;
21611;SDS011;47005;52.292;13.452;2023-04-06T11:00:20;3.70;;;1.80;;
21611;SDS011;47005;52.292;13.452;2023-04-06T11:02:46;6.43;;;3.47;;
21611;SDS011;47005;52.292;13.452;2023-04-06T11:05:13;4.83;;;2.57;;
21611;SDS011;47005;52.292;13.452;2023-04-06T11:07:40;2.33;;;1.40;;
21611;SDS011;47005;52.292;13.452;2023-04-06T11:10:06;3.07;;;1.70;;
21611;SDS011;47005;52.292;13.452;2023-04-06T11:12:33;4.97;;;1.83;;
21611;SDS011;47005;52.292;13.452;2023-04-06T11:15:00;3.87;;;1.97;;
21611;SDS011;47005;52.292;13.452;2023-04-06T11:17:29;3.07;;;1.77;;
21611;SDS011;47005;52.292;13.452;2023-04-06T11:19:56;4.00;;;1.80;;
21611;SDS011;47005;52.292;13.452;2023-04-06T11:22:24;3.83;;;1.80;;
21611;SDS011;47005;52.292;13.452;2023-04-06T11:24:51;3.30;;;2.00;;
21611;SDS011;47005;52.292;13.452;2023-04-06T11:27:17;4.53;;;2.00;;
21611;SDS011;47005;52.292;13.452;2023-04-06T11:29:46;4.93;;;2.00;;
21611;SDS011;47005;52.292;13.452;2023-04-06T11:32:19;5.10;;;2.20;;
21611;SDS011;47005;52.292;13.452;2023-04-06T11:34:46;5.20;;;2.07;;
21611;SDS011;47005;52.292;13.452;2023-04-06T11:37:13;4.40;;;2.60;;
21611;SDS011;47005;52.292;13.452;2023-04-06T11:42:07;2.90;;;1.73;;
21611;SDS011;47005;52.292;13.452;2023-04-06T11:44:34;3.37;;;2.10;;
21611;SDS011;47005;52.292;13.452;2023-04-06T11:47:01;3.40;;;1.80;;
21611;SDS011;47005;52.292;13.452;2023-04-06T11:49:29;3.80;;;2.10;;
21611;SDS011;47005;52.292;13.452;2023-04-06T11:51:55;5.17;;;2.67;;
21611;SDS011;47005;52.292;13.452;2023-04-06T11:57:01;3.53;;;1.93;;
21611;SDS011;47005;52.292;13.452;2023-04-06T11:59:27;4.27;;;2.40;;
21611;SDS011;47005;52.292;13.452;2023-04-06T12:01:53;7.67;;;2.43;;
21611;SDS011;47005;52.292;13.452;2023-04-06T12:04:19;4.47;;;1.90;;
21611;SDS011;47005;52.292;13.452;2023-04-06T12:06:45;5.77;;;2.33;;
21611;SDS011;47005;52.292;13.452;2023-04-06T12:09:11;3.20;;;2.30;;
21611;SDS011;47005;52.292;13.452;2023-04-06T12:11:37;3.20;;;2.07;;
21611;SDS011;47005;52.292;13.452;2023-04-06T12:14:03;3.93;;;2.43;;
21611;SDS011;47005;52.292;13.452;2023-04-06T12:16:30;4.07;;;2.53;;
21611;SDS011;47005;52.292;13.452;2023-04-06T12:18:56;2.40;;;1.70;;
21611;SDS011;47005;52.292;13.452;2023-04-06T12:21:22;4.33;;;2.07;;
21611;SDS011;47005;52.292;13.452;2023-04-06T12:23:48;4.97;;;2.30;;
21611;SDS011;47005;52.292;13.452;2023-04-06T12:26:13;3.67;;;2.30;;
21611;SDS011;47005;52.292;13.452;2023-04-06T12:28:39;2.97;;;1.80;;
21611;SDS011;47005;52.292;13.452;2023-04-06T12:31:05;3.80;;;2.20;;
21611;SDS011;47005;52.292;13.452;2023-04-06T12:33:31;4.27;;;2.33;;
21611;SDS011;47005;52.292;13.452;2023-04-06T12:35:56;5.33;;;2.73;;
21611;SDS011;47005;52.292;13.452;2023-04-06T12:38:22;4.83;;;2.60;;
21611;SDS011;47005;52.292;13.452;2023-04-06T12:40:48;3.70;;;2.17;;
21611;SDS011;47005;52.292;13.452;2023-04-06T12:43:13;3.60;;;2.37;;
21611;SDS011;47005;52.292;13.452;2023-04-06T12:45:39;3.03;;;2.00;;
21611;SDS011;47005;52.292;13.452;2023-04-06T12:48:05;2.83;;;1.83;;
21611;SDS011;47005;52.292;13.452;2023-04-06T12:50:32;4.37;;;2.63;;
21611;SDS011;47005;52.292;13.452;2023-04-06T12:52:58;3.30;;;2.20;;
21611;SDS011;47005;52.292;13.452;2023-04-06T12:55:24;3.60;;;2.40;;
21611;SDS011;47005;52.292;13.452;2023-04-06T12:57:50;4.30;;;2.40;;
21611;SDS011;47005;52.292;13.452;2023-04-06T13:00:15;5.97;;;2.37;;
21611;SDS011;47005;52.292;13.452;2023-04-06T13:02:41;4.07;;;2.50;;
21611;SDS011;47005;52.292;13.452;2023-04-06T13:05:11;3.70;;;2.43;;
21611;SDS011;47005;52.292;13.452;2023-04-06T13:07:39;3.50;;;1.87;;
21611;SDS011;47005;52.292;13.452;2023-04-06T13:10:04;4.47;;;2.67;;
21611;SDS011;47005;52.292;13.452;2023-04-06T13:12:30;3.85;;;2.17;;
21611;SDS011;47005;52.292;13.452;2023-04-06T13:14:56;4.13;;;2.42;;
21611;SDS011;47005;52.292;13.452;2023-04-06T13:17:22;5.22;;;2.40;;
21611;SDS011;47005;52.292;13.452;2023-04-06T13:19:47;3.42;;;1.92;;
21611;SDS011;47005;52.292;13.452;2023-04-06T13:22:13;3.83;;;2.13;;
21611;SDS011;47005;52.292;13.452;2023-04-06T13:24:38;3.30;;;2.08;;
21611;SDS011;47005;52.292;13.452;2023-04-06T13:27:04;3.00;;;2.03;;
21611;SDS011;47005;52.292;13.452;2023-04-06T13:29:30;3.03;;;2.20;;
21611;SDS011;47005;52.292;13.452;2023-04-06T13:31:56;4.40;;;1.85;;
21611;SDS011;47005;52.292;13.452;2023-04-06T13:34:22;3.30;;;2.07;;
21611;SDS011;47005;52.292;13.452;2023-04-06T13:36:47;3.30;;;2.13;;
21611;SDS011;47005;52.292;13.452;2023-04-06T13:39:13;8.77;;;2.50;;
21611;SDS011;47005;52.292;13.452;2023-04-06T13:41:39;5.37;;;2.07;;
21611;SDS011;47005;52.292;13.452;2023-04-06T13:44:05;5.60;;;2.10;;
21611;SDS011;47005;52.292;13.452;2023-04-06T13:46:31;4.90;;;1.77;;
21611;SDS011;47005;52.292;13.452;2023-04-06T13:48:57;4.23;;;2.60;;
21611;SDS011;47005;52.292;13.452;2023-04-06T13:51:22;3.13;;;1.70;;
21611;SDS011;47005;52.292;13.452;2023-04-06T13:53:48;5.43;;;2.20;;
21611;SDS011;47005;52.292;13.452;2023-04-06T13:56:17;4.60;;;2.40;;
21611;SDS011;47005;52.292;13.452;2023-04-06T13:58:43;3.37;;;1.97;;
21611;SDS011;47005;52.292;13.452;2023-04-06T14:01:08;3.30;;;1.92;;
21611;SDS011;47005;52.292;13.452;2023-04-06T14:03:35;3.05;;;1.90;;
21611;SDS011;47005;52.292;13.452;2023-04-06T14:06:01;3.90;;;1.95;;
21611;SDS011;47005;52.292;13.452;2023-04-06T14:08:34;3.55;;;2.17;;
21611;SDS011;47005;52.292;13.452;2023-04-06T14:11:03;4.13;;;1.95;;
21611;SDS011;47005;52.292;13.452;2023-04-06T14:13:29;4.20;;;2.50;;
21611;SDS011;47005;52.292;13.452;2023-04-06T14:15:54;3.33;;;1.90;;
21611;SDS011;47005;52.292;13.452;2023-04-06T14:18:21;5.30;;;2.60;;
21611;SDS011;47005;52.292;13.452;2023-04-06T14:20:54;3.55;;;2.40;;
21611;SDS011;47005;52.292;13.452;2023-04-06T14:23:20;4.32;;;2.50;;
21611;SDS011;47005;52.292;13.452;2023-04-06T14:25:46;3.92;;;2.22;;
21611;SDS011;47005;52.292;13.452;2023-04-06T14:28:12;5.05;;;2.38;;
21611;SDS011;47005;52.292;13.452;2023-04-06T14:30:41;3.75;;;2.65;;
21611;SDS011;47005;52.292;13.452;2023-04-06T14:33:07;3.60;;;2.20;;
21611;SDS011;47005;52.292;13.452;2023-04-06T14:35:32;6.57;;;2.13;;